sensor_id;sensor_type;location;lat;lon;timestamp;temperature;humidity
75091;DHT22;63674;48.048;8.306;2024-01-06T00:01:26;3.30;99.90
75091;DHT22;63674;48.048;8.306;2024-01-06T00:03:55;3.30;99.90
75091;DHT22;63674;48.048;8.306;2024-01-06T00:06:25;3.30;99.90
75091;DHT22;63674;48.048;8.306;2024-01-06T00:08:54;3.30;99.90
75091;DHT22;63674;48.048;8.306;2024-01-06T00:11:23;3.30;99.90
75091;DHT22;63674;48.048;8.306;2024-01-06T00:13:51;3.30;99.90
75091;DHT22;63674;48.048;8.306;2024-01-06T00:16:20;3.30;99.90
75091;DHT22;63674;48.048;8.306;2024-01-06T00:18:52;3.30;99.90
75091;DHT22;63674;48.048;8.306;2024-01-06T00:21:21;3.30;99.90
75091;DHT22;63674;48.048;8.306;2024-01-06T00:23:51;3.30;99.90
75091;DHT22;63674;48.048;8.306;2024-01-06T00:26:19;3.30;99.90
75091;DHT22;63674;48.048;8.306;2024-01-06T00:28:47;3.20;99.90
75091;DHT22;63674;48.048;8.306;2024-01-06T00:31:17;3.30;99.90
75091;DHT22;63674;48.048;8.306;2024-01-06T00:33:46;3.20;99.90
75091;DHT22;63674;48.048;8.306;2024-01-06T00:36:15;3.10;99.90
75091;DHT22;63674;48.048;8.306;2024-01-06T00:38:44;3.10;99.90
75091;DHT22;63674;48.048;8.306;2024-01-06T00:41:14;3.00;99.90
75091;DHT22;63674;48.048;8.306;2024-01-06T00:43:42;3.10;99.90
75091;DHT22;63674;48.048;8.306;2024-01-06T00:46:11;3.00;99.90
75091;DHT22;63674;48.048;8.306;2024-01-06T00:48:39;3.10;99.90
75091;DHT22;63674;48.048;8.306;2024-01-06T00:51:08;3.10;99.90
75091;DHT22;63674;48.048;8.306;2024-01-06T00:53:37;3.10;99.90
75091;DHT22;63674;48.048;8.306;2024-01-06T00:56:05;3.00;99.90
75091;DHT22;63674;48.048;8.306;2024-01-06T00:58:35;3.00;99.90
75091;DHT22;63674;48.048;8.306;2024-01-06T01:01:04;3.00;99.90
75091;DHT22;63674;48.048;8.306;2024-01-06T01:03:33;3.10;99.90
75091;DHT22;63674;48.048;8.306;2024-01-06T01:06:02;3.10;99.90
75091;DHT22;63674;48.048;8.306;2024-01-06T01:08:32;3.00;99.90
75091;DHT22;63674;48.048;8.306;2024-01-06T01:11:00;3.00;99.90
75091;DHT22;63674;48.048;8.306;2024-01-06T01:13:29;3.00;99.90
75091;DHT22;63674;48.048;8.306;2024-01-06T01:15:59;3.00;99.90
75091;DHT22;63674;48.048;8.306;2024-01-06T01:18:27;2.90;99.90
75091;DHT22;63674;48.048;8.306;2024-01-06T01:20:56;2.90;99.90
75091;DHT22;63674;48.048;8.306;2024-01-06T01:23:25;2.90;99.90
75091;DHT22;63674;48.048;8.306;2024-01-06T01:25:54;2.90;99.90
75091;DHT22;63674;48.048;8.306;2024-01-06T01:28:23;3.00;99.90
75091;DHT22;63674;48.048;8.306;2024-01-06T01:30:51;3.00;99.90
75091;DHT22;63674;48.048;8.306;2024-01-06T01:33:21;3.10;99.90
75091;DHT22;63674;48.048;8.306;2024-01-06T01:35:51;3.00;99.90
75091;DHT22;63674;48.048;8.306;2024-01-06T01:38:20;3.10;99.90
75091;DHT22;63674;48.048;8.306;2024-01-06T01:40:48;3.10;99.90
75091;DHT22;63674;48.048;8.306;2024-01-06T01:43:17;3.10;99.90
75091;DHT22;63674;48.048;8.306;2024-01-06T01:45:50;3.10;99.90
75091;DHT22;63674;48.048;8.306;2024-01-06T01:48:21;3.10;99.90
75091;DHT22;63674;48.048;8.306;2024-01-06T01:50:52;3.00;99.90
75091;DHT22;63674;48.048;8.306;2024-01-06T01:53:22;3.00;99.90
75091;DHT22;63674;48.048;8.306;2024-01-06T01:55:53;3.00;99.90
75091;DHT22;63674;48.048;8.306;2024-01-06T01:58:22;3.10;99.90
75091;DHT22;63674;48.048;8.306;2024-01-06T02:00:51;3.00;99.90
75091;DHT22;63674;48.048;8.306;2024-01-06T02:03:22;3.00;99.90
75091;DHT22;63674;48.048;8.306;2024-01-06T02:05:52;3.00;99.90
75091;DHT22;63674;48.048;8.306;2024-01-06T02:08:21;3.00;99.90
75091;DHT22;63674;48.048;8.306;2024-01-06T02:10:50;3.00;99.90
75091;DHT22;63674;48.048;8.306;2024-01-06T02:13:19;3.10;99.90
75091;DHT22;63674;48.048;8.306;2024-01-06T02:15:48;3.10;99.90
75091;DHT22;63674;48.048;8.306;2024-01-06T02:18:17;3.10;99.90
75091;DHT22;63674;48.048;8.306;2024-01-06T02:20:48;3.00;99.90
75091;DHT22;63674;48.048;8.306;2024-01-06T02:23:19;3.10;99.90
75091;DHT22;63674;48.048;8.306;2024-01-06T02:25:48;3.10;99.90
75091;DHT22;63674;48.048;8.306;2024-01-06T02:28:17;3.10;99.90
75091;DHT22;63674;48.048;8.306;2024-01-06T02:30:46;3.10;99.90
75091;DHT22;63674;48.048;8.306;2024-01-06T02:33:14;3.10;99.90
75091;DHT22;63674;48.048;8.306;2024-01-06T02:36:02;3.00;99.90
75091;DHT22;63674;48.048;8.306;2024-01-06T02:38:51;3.00;99.90
75091;DHT22;63674;48.048;8.306;2024-01-06T02:41:39;3.00;99.90
75091;DHT22;63674;48.048;8.306;2024-01-06T02:44:26;3.00;99.90
75091;DHT22;63674;48.048;8.306;2024-01-06T02:47:13;3.00;99.90
75091;DHT22;63674;48.048;8.306;2024-01-06T02:50:00;3.00;99.90
75091;DHT22;63674;48.048;8.306;2024-01-06T02:52:47;3.00;99.90
75091;DHT22;63674;48.048;8.306;2024-01-06T02:55:36;3.00;99.90
75091;DHT22;63674;48.048;8.306;2024-01-06T02:58:23;3.00;99.90
75091;DHT22;63674;48.048;8.306;2024-01-06T03:01:11;3.00;99.90
75091;DHT22;63674;48.048;8.306;2024-01-06T03:03:59;3.00;99.90
75091;DHT22;63674;48.048;8.306;2024-01-06T03:06:46;3.00;99.90
75091;DHT22;63674;48.048;8.306;2024-01-06T03:09:38;3.00;99.90
75091;DHT22;63674;48.048;8.306;2024-01-06T03:12:26;3.00;99.90
75091;DHT22;63674;48.048;8.306;2024-01-06T03:15:14;3.00;99.90
75091;DHT22;63674;48.048;8.306;2024-01-06T03:18:01;3.00;99.90
75091;DHT22;63674;48.048;8.306;2024-01-06T03:20:49;3.00;99.90
75091;DHT22;63674;48.048;8.306;2024-01-06T03:23:36;2.90;99.90
75091;DHT22;63674;48.048;8.306;2024-01-06T03:26:23;2.90;99.90
75091;DHT22;63674;48.048;8.306;2024-01-06T03:29:11;3.00;99.90
75091;DHT22;63674;48.048;8.306;2024-01-06T03:31:58;2.90;99.90
75091;DHT22;63674;48.048;8.306;2024-01-06T03:34:45;2.90;99.90
75091;DHT22;63674;48.048;8.306;2024-01-06T03:37:32;2.90;99.90
75091;DHT22;63674;48.048;8.306;2024-01-06T03:40:19;2.90;99.90
75091;DHT22;63674;48.048;8.306;2024-01-06T03:43:07;2.90;99.90
75091;DHT22;63674;48.048;8.306;2024-01-06T03:45:55;2.90;99.90
75091;DHT22;63674;48.048;8.306;2024-01-06T03:48:43;2.80;99.90
75091;DHT22;63674;48.048;8.306;2024-01-06T03:51:12;2.90;99.90
75091;DHT22;63674;48.048;8.306;2024-01-06T03:53:41;2.80;99.90
75091;DHT22;63674;48.048;8.306;2024-01-06T03:56:09;2.80;99.90
75091;DHT22;63674;48.048;8.306;2024-01-06T03:58:38;2.70;99.90
75091;DHT22;63674;48.048;8.306;2024-01-06T04:01:08;2.70;99.90
75091;DHT22;63674;48.048;8.306;2024-01-06T04:03:38;2.70;99.90
75091;DHT22;63674;48.048;8.306;2024-01-06T04:06:08;2.70;99.90
75091;DHT22;63674;48.048;8.306;2024-01-06T04:08:38;2.80;99.90
75091;DHT22;63674;48.048;8.306;2024-01-06T04:11:07;2.80;99.90
75091;DHT22;63674;48.048;8.306;2024-01-06T04:13:36;2.80;99.90
75091;DHT22;63674;48.048;8.306;2024-01-06T04:16:04;2.80;99.90
75091;DHT22;63674;48.048;8.306;2024-01-06T04:18:35;2.80;99.90
75091;DHT22;63674;48.048;8.306;2024-01-06T04:21:04;2.80;99.90
75091;DHT22;63674;48.048;8.306;2024-01-06T04:23:32;2.80;99.90
75091;DHT22;63674;48.048;8.306;2024-01-06T04:26:01;2.80;99.90
75091;DHT22;63674;48.048;8.306;2024-01-06T04:28:31;2.80;99.90
75091;DHT22;63674;48.048;8.306;2024-01-06T04:31:00;2.80;99.90
75091;DHT22;63674;48.048;8.306;2024-01-06T04:33:28;2.80;99.90
75091;DHT22;63674;48.048;8.306;2024-01-06T04:35:59;2.80;99.90
75091;DHT22;63674;48.048;8.306;2024-01-06T04:38:28;2.80;99.90
75091;DHT22;63674;48.048;8.306;2024-01-06T04:40:57;2.80;99.90
75091;DHT22;63674;48.048;8.306;2024-01-06T04:43:26;2.80;99.90
75091;DHT22;63674;48.048;8.306;2024-01-06T04:45:54;2.80;99.90
75091;DHT22;63674;48.048;8.306;2024-01-06T04:48:24;2.80;99.90
75091;DHT22;63674;48.048;8.306;2024-01-06T04:50:53;2.70;99.90
75091;DHT22;63674;48.048;8.306;2024-01-06T04:53:23;2.70;99.90
75091;DHT22;63674;48.048;8.306;2024-01-06T04:55:51;2.60;99.90
75091;DHT22;63674;48.048;8.306;2024-01-06T04:58:20;2.60;99.90
75091;DHT22;63674;48.048;8.306;2024-01-06T05:00:48;2.70;99.90
75091;DHT22;63674;48.048;8.306;2024-01-06T05:03:19;2.70;99.90
75091;DHT22;63674;48.048;8.306;2024-01-06T05:05:48;2.70;99.90
75091;DHT22;63674;48.048;8.306;2024-01-06T05:08:16;2.70;99.90
75091;DHT22;63674;48.048;8.306;2024-01-06T05:10:46;2.60;99.90
75091;DHT22;63674;48.048;8.306;2024-01-06T05:13:16;2.50;99.90
75091;DHT22;63674;48.048;8.306;2024-01-06T05:15:45;2.50;99.90
75091;DHT22;63674;48.048;8.306;2024-01-06T05:18:13;2.60;99.90
75091;DHT22;63674;48.048;8.306;2024-01-06T05:20:42;2.60;99.90
75091;DHT22;63674;48.048;8.306;2024-01-06T05:23:11;2.60;99.90
75091;DHT22;63674;48.048;8.306;2024-01-06T05:25:39;2.60;99.90
75091;DHT22;63674;48.048;8.306;2024-01-06T05:28:09;2.70;99.90
75091;DHT22;63674;48.048;8.306;2024-01-06T05:30:38;2.70;99.90
75091;DHT22;63674;48.048;8.306;2024-01-06T05:33:09;2.70;99.90
75091;DHT22;63674;48.048;8.306;2024-01-06T05:35:41;2.70;99.90
75091;DHT22;63674;48.048;8.306;2024-01-06T05:38:10;2.70;99.90
75091;DHT22;63674;48.048;8.306;2024-01-06T05:40:38;2.70;99.90
75091;DHT22;63674;48.048;8.306;2024-01-06T05:43:08;2.70;99.90
75091;DHT22;63674;48.048;8.306;2024-01-06T05:45:37;2.70;99.90
75091;DHT22;63674;48.048;8.306;2024-01-06T05:48:09;2.70;99.90
75091;DHT22;63674;48.048;8.306;2024-01-06T05:50:38;2.70;99.90
75091;DHT22;63674;48.048;8.306;2024-01-06T05:53:07;2.70;99.90
75091;DHT22;63674;48.048;8.306;2024-01-06T05:55:38;2.70;99.90
75091;DHT22;63674;48.048;8.306;2024-01-06T05:58:06;2.70;99.90
75091;DHT22;63674;48.048;8.306;2024-01-06T06:00:36;2.70;99.90
75091;DHT22;63674;48.048;8.306;2024-01-06T06:03:05;2.70;99.90
75091;DHT22;63674;48.048;8.306;2024-01-06T06:05:34;2.70;99.90
75091;DHT22;63674;48.048;8.306;2024-01-06T06:08:04;2.70;99.90
75091;DHT22;63674;48.048;8.306;2024-01-06T06:10:33;2.70;99.90
75091;DHT22;63674;48.048;8.306;2024-01-06T06:13:20;2.60;99.90
75091;DHT22;63674;48.048;8.306;2024-01-06T06:15:48;2.70;99.90
75091;DHT22;63674;48.048;8.306;2024-01-06T06:18:17;2.70;99.90
75091;DHT22;63674;48.048;8.306;2024-01-06T06:20:46;2.60;99.90
75091;DHT22;63674;48.048;8.306;2024-01-06T06:23:15;2.50;99.90
75091;DHT22;63674;48.048;8.306;2024-01-06T06:25:43;2.50;99.90
75091;DHT22;63674;48.048;8.306;2024-01-06T06:28:12;2.50;99.90
75091;DHT22;63674;48.048;8.306;2024-01-06T06:30:42;2.50;99.90
75091;DHT22;63674;48.048;8.306;2024-01-06T06:33:11;2.50;99.90
75091;DHT22;63674;48.048;8.306;2024-01-06T06:35:40;2.50;99.90
75091;DHT22;63674;48.048;8.306;2024-01-06T06:38:08;2.40;99.90
75091;DHT22;63674;48.048;8.306;2024-01-06T06:40:37;2.40;99.90
75091;DHT22;63674;48.048;8.306;2024-01-06T06:43:05;2.50;99.90
75091;DHT22;63674;48.048;8.306;2024-01-06T06:45:35;2.60;99.90
75091;DHT22;63674;48.048;8.306;2024-01-06T06:48:06;2.60;99.90
75091;DHT22;63674;48.048;8.306;2024-01-06T06:50:35;2.60;99.90
75091;DHT22;63674;48.048;8.306;2024-01-06T06:53:03;2.60;99.90
75091;DHT22;63674;48.048;8.306;2024-01-06T06:55:32;2.60;99.90
75091;DHT22;63674;48.048;8.306;2024-01-06T06:58:01;2.50;99.90
75091;DHT22;63674;48.048;8.306;2024-01-06T07:00:29;2.50;99.90
75091;DHT22;63674;48.048;8.306;2024-01-06T07:02:58;2.60;99.90
75091;DHT22;63674;48.048;8.306;2024-01-06T07:05:28;2.50;99.90
75091;DHT22;63674;48.048;8.306;2024-01-06T07:07:59;2.50;99.90
75091;DHT22;63674;48.048;8.306;2024-01-06T07:10:28;2.40;99.90
75091;DHT22;63674;48.048;8.306;2024-01-06T07:12:57;2.40;99.90
75091;DHT22;63674;48.048;8.306;2024-01-06T07:15:25;2.40;99.90
75091;DHT22;63674;48.048;8.306;2024-01-06T07:17:54;2.40;99.90
75091;DHT22;63674;48.048;8.306;2024-01-06T07:20:23;2.40;99.90
75091;DHT22;63674;48.048;8.306;2024-01-06T07:22:53;2.40;99.90
75091;DHT22;63674;48.048;8.306;2024-01-06T07:25:22;2.40;99.90
75091;DHT22;63674;48.048;8.306;2024-01-06T07:27:50;2.50;99.90
75091;DHT22;63674;48.048;8.306;2024-01-06T07:30:21;2.50;99.90
75091;DHT22;63674;48.048;8.306;2024-01-06T07:32:50;2.50;99.90
75091;DHT22;63674;48.048;8.306;2024-01-06T07:35:19;2.50;99.90
75091;DHT22;63674;48.048;8.306;2024-01-06T07:37:48;2.50;99.90
75091;DHT22;63674;48.048;8.306;2024-01-06T07:40:18;2.40;99.90
75091;DHT22;63674;48.048;8.306;2024-01-06T07:42:46;2.40;99.90
75091;DHT22;63674;48.048;8.306;2024-01-06T07:45:15;2.40;99.90
75091;DHT22;63674;48.048;8.306;2024-01-06T07:47:43;2.40;99.90
75091;DHT22;63674;48.048;8.306;2024-01-06T07:50:12;2.40;99.90
75091;DHT22;63674;48.048;8.306;2024-01-06T07:52:41;2.40;99.90
75091;DHT22;63674;48.048;8.306;2024-01-06T07:55:09;2.40;99.90
75091;DHT22;63674;48.048;8.306;2024-01-06T07:57:39;2.40;99.90
75091;DHT22;63674;48.048;8.306;2024-01-06T08:00:09;2.40;99.90
75091;DHT22;63674;48.048;8.306;2024-01-06T08:02:41;2.40;99.90
75091;DHT22;63674;48.048;8.306;2024-01-06T08:05:10;2.50;99.90
75091;DHT22;63674;48.048;8.306;2024-01-06T08:07:39;2.50;99.90
75091;DHT22;63674;48.048;8.306;2024-01-06T08:10:08;2.60;99.90
75091;DHT22;63674;48.048;8.306;2024-01-06T08:12:38;2.60;99.90
75091;DHT22;63674;48.048;8.306;2024-01-06T08:15:07;2.60;99.90
75091;DHT22;63674;48.048;8.306;2024-01-06T08:17:36;2.60;99.90
75091;DHT22;63674;48.048;8.306;2024-01-06T08:20:08;2.60;99.90
75091;DHT22;63674;48.048;8.306;2024-01-06T08:22:39;2.60;99.90
75091;DHT22;63674;48.048;8.306;2024-01-06T08:25:07;2.70;99.90
75091;DHT22;63674;48.048;8.306;2024-01-06T08:27:36;2.70;99.90
75091;DHT22;63674;48.048;8.306;2024-01-06T08:30:07;2.70;99.90
75091;DHT22;63674;48.048;8.306;2024-01-06T08:32:37;2.70;99.90
75091;DHT22;63674;48.048;8.306;2024-01-06T08:35:06;2.80;99.90
75091;DHT22;63674;48.048;8.306;2024-01-06T08:37:35;2.80;99.90
75091;DHT22;63674;48.048;8.306;2024-01-06T08:40:05;2.80;99.90
75091;DHT22;63674;48.048;8.306;2024-01-06T08:42:35;2.80;99.90
75091;DHT22;63674;48.048;8.306;2024-01-06T08:45:06;2.90;99.90
75091;DHT22;63674;48.048;8.306;2024-01-06T08:47:35;2.90;99.90
75091;DHT22;63674;48.048;8.306;2024-01-06T08:50:05;3.00;99.90
75091;DHT22;63674;48.048;8.306;2024-01-06T08:52:35;3.00;99.90
75091;DHT22;63674;48.048;8.306;2024-01-06T08:55:04;2.90;99.90
75091;DHT22;63674;48.048;8.306;2024-01-06T08:57:33;3.00;99.90
75091;DHT22;63674;48.048;8.306;2024-01-06T09:00:03;3.00;99.90
75091;DHT22;63674;48.048;8.306;2024-01-06T09:02:34;3.00;99.90
75091;DHT22;63674;48.048;8.306;2024-01-06T09:05:02;3.00;99.90
75091;DHT22;63674;48.048;8.306;2024-01-06T09:07:31;3.00;99.90
75091;DHT22;63674;48.048;8.306;2024-01-06T09:10:00;3.00;99.90
75091;DHT22;63674;48.048;8.306;2024-01-06T09:12:29;3.10;99.90
75091;DHT22;63674;48.048;8.306;2024-01-06T09:14:57;3.20;99.90
75091;DHT22;63674;48.048;8.306;2024-01-06T09:17:26;3.10;99.90
75091;DHT22;63674;48.048;8.306;2024-01-06T09:19:56;3.20;99.90
75091;DHT22;63674;48.048;8.306;2024-01-06T09:22:25;3.20;99.90
75091;DHT22;63674;48.048;8.306;2024-01-06T09:24:54;3.10;99.90
75091;DHT22;63674;48.048;8.306;2024-01-06T09:27:23;3.10;99.90
75091;DHT22;63674;48.048;8.306;2024-01-06T09:29:51;3.00;99.90
75091;DHT22;63674;48.048;8.306;2024-01-06T09:32:20;3.10;99.90
75091;DHT22;63674;48.048;8.306;2024-01-06T09:34:50;3.10;99.90
75091;DHT22;63674;48.048;8.306;2024-01-06T09:37:20;3.10;99.90
75091;DHT22;63674;48.048;8.306;2024-01-06T09:39:48;3.20;99.90
75091;DHT22;63674;48.048;8.306;2024-01-06T09:42:17;3.20;99.90
75091;DHT22;63674;48.048;8.306;2024-01-06T09:44:47;3.20;99.90
75091;DHT22;63674;48.048;8.306;2024-01-06T09:47:18;3.40;99.90
75091;DHT22;63674;48.048;8.306;2024-01-06T09:49:49;3.20;99.90
75091;DHT22;63674;48.048;8.306;2024-01-06T09:52:22;3.20;99.90
75091;DHT22;63674;48.048;8.306;2024-01-06T09:54:52;3.20;99.90
75091;DHT22;63674;48.048;8.306;2024-01-06T09:57:23;3.20;99.90
75091;DHT22;63674;48.048;8.306;2024-01-06T09:59:52;3.20;99.90
75091;DHT22;63674;48.048;8.306;2024-01-06T10:02:21;3.20;99.90
75091;DHT22;63674;48.048;8.306;2024-01-06T10:04:51;3.20;99.90
75091;DHT22;63674;48.048;8.306;2024-01-06T10:07:21;3.30;99.90
75091;DHT22;63674;48.048;8.306;2024-01-06T10:09:50;3.30;99.90
75091;DHT22;63674;48.048;8.306;2024-01-06T10:12:23;3.30;99.90
75091;DHT22;63674;48.048;8.306;2024-01-06T10:14:52;3.30;99.90
75091;DHT22;63674;48.048;8.306;2024-01-06T10:17:22;3.30;99.90
75091;DHT22;63674;48.048;8.306;2024-01-06T10:19:51;3.30;99.90
75091;DHT22;63674;48.048;8.306;2024-01-06T10:22:22;3.20;99.90
75091;DHT22;63674;48.048;8.306;2024-01-06T10:24:51;3.30;99.90
75091;DHT22;63674;48.048;8.306;2024-01-06T10:27:19;3.30;99.90
75091;DHT22;63674;48.048;8.306;2024-01-06T10:29:48;3.30;99.90
75091;DHT22;63674;48.048;8.306;2024-01-06T10:32:18;3.30;99.90
75091;DHT22;63674;48.048;8.306;2024-01-06T10:34:46;3.30;99.90
75091;DHT22;63674;48.048;8.306;2024-01-06T10:37:17;3.20;99.90
75091;DHT22;63674;48.048;8.306;2024-01-06T10:39:47;3.20;99.90
75091;DHT22;63674;48.048;8.306;2024-01-06T10:42:15;3.30;99.90
75091;DHT22;63674;48.048;8.306;2024-01-06T10:44:45;3.30;99.90
75091;DHT22;63674;48.048;8.306;2024-01-06T10:47:17;3.40;99.90
75091;DHT22;63674;48.048;8.306;2024-01-06T10:49:47;3.30;99.90
75091;DHT22;63674;48.048;8.306;2024-01-06T10:52:23;3.30;99.90
75091;DHT22;63674;48.048;8.306;2024-01-06T10:54:55;3.30;99.90
75091;DHT22;63674;48.048;8.306;2024-01-06T10:57:24;3.20;99.90
75091;DHT22;63674;48.048;8.306;2024-01-06T10:59:52;3.30;99.90
75091;DHT22;63674;48.048;8.306;2024-01-06T11:02:22;3.30;99.90
75091;DHT22;63674;48.048;8.306;2024-01-06T11:04:52;3.30;99.90
75091;DHT22;63674;48.048;8.306;2024-01-06T11:07:22;3.20;99.90
75091;DHT22;63674;48.048;8.306;2024-01-06T11:10:00;3.20;99.90
75091;DHT22;63674;48.048;8.306;2024-01-06T11:12:33;3.20;99.90
75091;DHT22;63674;48.048;8.306;2024-01-06T11:15:01;3.30;99.90
75091;DHT22;63674;48.048;8.306;2024-01-06T11:17:50;3.20;99.90
75091;DHT22;63674;48.048;8.306;2024-01-06T11:20:23;3.20;99.90
75091;DHT22;63674;48.048;8.306;2024-01-06T11:22:53;3.20;99.90
75091;DHT22;63674;48.048;8.306;2024-01-06T11:25:24;3.20;99.90
75091;DHT22;63674;48.048;8.306;2024-01-06T11:27:55;3.20;99.90
75091;DHT22;63674;48.048;8.306;2024-01-06T11:30:25;3.20;99.90
75091;DHT22;63674;48.048;8.306;2024-01-06T11:32:56;3.30;99.90
75091;DHT22;63674;48.048;8.306;2024-01-06T11:35:26;3.30;99.90
75091;DHT22;63674;48.048;8.306;2024-01-06T11:37:56;3.30;99.90
75091;DHT22;63674;48.048;8.306;2024-01-06T11:40:33;3.30;99.90
75091;DHT22;63674;48.048;8.306;2024-01-06T11:43:04;3.30;99.90
75091;DHT22;63674;48.048;8.306;2024-01-06T11:45:35;3.40;99.90
75091;DHT22;63674;48.048;8.306;2024-01-06T11:48:05;3.40;99.90
75091;DHT22;63674;48.048;8.306;2024-01-06T11:50:36;3.40;99.90
75091;DHT22;63674;48.048;8.306;2024-01-06T11:53:07;3.30;99.90
75091;DHT22;63674;48.048;8.306;2024-01-06T11:55:40;3.30;99.90
75091;DHT22;63674;48.048;8.306;2024-01-06T11:58:10;3.20;99.90
75091;DHT22;63674;48.048;8.306;2024-01-06T12:00:38;3.20;99.90
75091;DHT22;63674;48.048;8.306;2024-01-06T12:03:09;3.20;99.90
75091;DHT22;63674;48.048;8.306;2024-01-06T12:05:38;3.30;99.90
75091;DHT22;63674;48.048;8.306;2024-01-06T12:08:06;3.30;99.90
75091;DHT22;63674;48.048;8.306;2024-01-06T12:10:35;3.30;99.90
75091;DHT22;63674;48.048;8.306;2024-01-06T12:13:07;3.30;99.90
75091;DHT22;63674;48.048;8.306;2024-01-06T12:15:38;3.30;99.90
75091;DHT22;63674;48.048;8.306;2024-01-06T12:18:09;3.30;99.90
75091;DHT22;63674;48.048;8.306;2024-01-06T12:20:38;3.20;99.90
75091;DHT22;63674;48.048;8.306;2024-01-06T12:23:06;3.20;99.90
75091;DHT22;63674;48.048;8.306;2024-01-06T12:25:35;3.20;99.90
75091;DHT22;63674;48.048;8.306;2024-01-06T12:28:08;3.20;99.90
75091;DHT22;63674;48.048;8.306;2024-01-06T12:30:38;3.20;99.90
75091;DHT22;63674;48.048;8.306;2024-01-06T12:33:08;3.20;99.90
75091;DHT22;63674;48.048;8.306;2024-01-06T12:35:37;3.30;99.90
75091;DHT22;63674;48.048;8.306;2024-01-06T12:38:06;3.40;99.90
75091;DHT22;63674;48.048;8.306;2024-01-06T12:40:36;3.40;99.90
75091;DHT22;63674;48.048;8.306;2024-01-06T12:43:05;3.40;99.90
75091;DHT22;63674;48.048;8.306;2024-01-06T12:45:35;3.50;99.90
75091;DHT22;63674;48.048;8.306;2024-01-06T12:48:05;3.50;99.90
75091;DHT22;63674;48.048;8.306;2024-01-06T12:50:34;3.40;99.90
75091;DHT22;63674;48.048;8.306;2024-01-06T12:53:03;3.40;99.90
75091;DHT22;63674;48.048;8.306;2024-01-06T12:55:31;3.40;99.90
75091;DHT22;63674;48.048;8.306;2024-01-06T12:58:00;3.30;99.90
75091;DHT22;63674;48.048;8.306;2024-01-06T13:00:32;3.30;99.90
75091;DHT22;63674;48.048;8.306;2024-01-06T13:03:03;3.30;99.90
75091;DHT22;63674;48.048;8.306;2024-01-06T13:05:33;3.30;99.90
75091;DHT22;63674;48.048;8.306;2024-01-06T13:08:02;3.10;99.90
75091;DHT22;63674;48.048;8.306;2024-01-06T13:10:31;3.10;99.90
75091;DHT22;63674;48.048;8.306;2024-01-06T13:13:01;3.10;99.90
75091;DHT22;63674;48.048;8.306;2024-01-06T13:15:31;3.10;99.90
75091;DHT22;63674;48.048;8.306;2024-01-06T13:18:00;3.10;99.90
75091;DHT22;63674;48.048;8.306;2024-01-06T13:20:29;3.00;99.90
75091;DHT22;63674;48.048;8.306;2024-01-06T13:22:57;3.00;99.90
75091;DHT22;63674;48.048;8.306;2024-01-06T13:25:26;3.00;99.90
75091;DHT22;63674;48.048;8.306;2024-01-06T13:27:55;3.00;99.90
75091;DHT22;63674;48.048;8.306;2024-01-06T13:30:23;3.00;99.90
75091;DHT22;63674;48.048;8.306;2024-01-06T13:32:54;3.10;99.90
75091;DHT22;63674;48.048;8.306;2024-01-06T13:35:23;3.10;99.90
75091;DHT22;63674;48.048;8.306;2024-01-06T13:37:52;3.10;99.90
75091;DHT22;63674;48.048;8.306;2024-01-06T13:40:23;3.10;99.90
75091;DHT22;63674;48.048;8.306;2024-01-06T13:42:52;3.10;99.90
75091;DHT22;63674;48.048;8.306;2024-01-06T13:45:21;3.10;99.90
75091;DHT22;63674;48.048;8.306;2024-01-06T13:47:49;3.10;99.90
75091;DHT22;63674;48.048;8.306;2024-01-06T13:50:20;3.20;99.90
75091;DHT22;63674;48.048;8.306;2024-01-06T13:52:49;3.20;99.90
75091;DHT22;63674;48.048;8.306;2024-01-06T13:55:17;3.20;99.90
75091;DHT22;63674;48.048;8.306;2024-01-06T13:57:46;3.20;99.90
75091;DHT22;63674;48.048;8.306;2024-01-06T14:00:15;3.30;99.90
75091;DHT22;63674;48.048;8.306;2024-01-06T14:02:47;3.30;99.90
75091;DHT22;63674;48.048;8.306;2024-01-06T14:05:16;3.30;99.90
75091;DHT22;63674;48.048;8.306;2024-01-06T14:07:48;3.30;99.90
75091;DHT22;63674;48.048;8.306;2024-01-06T14:10:18;3.30;99.90
75091;DHT22;63674;48.048;8.306;2024-01-06T14:12:47;3.30;99.90
75091;DHT22;63674;48.048;8.306;2024-01-06T14:15:16;3.30;99.90
75091;DHT22;63674;48.048;8.306;2024-01-06T14:17:46;3.30;99.90
75091;DHT22;63674;48.048;8.306;2024-01-06T14:20:17;3.30;99.90
75091;DHT22;63674;48.048;8.306;2024-01-06T14:22:45;3.30;99.90
75091;DHT22;63674;48.048;8.306;2024-01-06T14:25:16;3.30;99.90
75091;DHT22;63674;48.048;8.306;2024-01-06T14:27:46;3.20;99.90
75091;DHT22;63674;48.048;8.306;2024-01-06T14:30:15;3.20;99.90
75091;DHT22;63674;48.048;8.306;2024-01-06T14:32:44;3.10;99.90
75091;DHT22;63674;48.048;8.306;2024-01-06T14:35:12;3.10;99.90
75091;DHT22;63674;48.048;8.306;2024-01-06T14:37:43;3.10;99.90
75091;DHT22;63674;48.048;8.306;2024-01-06T14:40:14;3.10;99.90
75091;DHT22;63674;48.048;8.306;2024-01-06T14:42:42;3.10;99.90
75091;DHT22;63674;48.048;8.306;2024-01-06T14:45:11;3.10;99.90
75091;DHT22;63674;48.048;8.306;2024-01-06T14:47:41;3.10;99.90
75091;DHT22;63674;48.048;8.306;2024-01-06T14:50:10;3.20;99.90
75091;DHT22;63674;48.048;8.306;2024-01-06T14:52:38;3.20;99.90
75091;DHT22;63674;48.048;8.306;2024-01-06T14:55:08;3.20;99.90
75091;DHT22;63674;48.048;8.306;2024-01-06T14:57:39;3.30;99.90
75091;DHT22;63674;48.048;8.306;2024-01-06T15:00:08;3.20;99.90
75091;DHT22;63674;48.048;8.306;2024-01-06T15:02:38;3.20;99.90
75091;DHT22;63674;48.048;8.306;2024-01-06T15:05:07;3.20;99.90
75091;DHT22;63674;48.048;8.306;2024-01-06T15:07:36;3.10;99.90
75091;DHT22;63674;48.048;8.306;2024-01-06T15:10:06;3.00;99.90
75091;DHT22;63674;48.048;8.306;2024-01-06T15:12:36;3.00;99.90
75091;DHT22;63674;48.048;8.306;2024-01-06T15:15:07;3.00;99.90
75091;DHT22;63674;48.048;8.306;2024-01-06T15:17:36;3.00;99.90
75091;DHT22;63674;48.048;8.306;2024-01-06T15:20:06;3.00;99.90
75091;DHT22;63674;48.048;8.306;2024-01-06T15:22:37;3.10;99.90
75091;DHT22;63674;48.048;8.306;2024-01-06T15:25:07;3.10;99.90
75091;DHT22;63674;48.048;8.306;2024-01-06T15:27:38;3.10;99.90
75091;DHT22;63674;48.048;8.306;2024-01-06T15:30:07;3.00;99.90
75091;DHT22;63674;48.048;8.306;2024-01-06T15:32:37;2.90;99.90
75091;DHT22;63674;48.048;8.306;2024-01-06T15:35:07;2.90;99.90
75091;DHT22;63674;48.048;8.306;2024-01-06T15:37:37;2.90;99.90
75091;DHT22;63674;48.048;8.306;2024-01-06T15:40:07;2.90;99.90
75091;DHT22;63674;48.048;8.306;2024-01-06T15:42:36;2.90;99.90
75091;DHT22;63674;48.048;8.306;2024-01-06T15:45:08;2.90;99.90
75091;DHT22;63674;48.048;8.306;2024-01-06T15:47:38;2.90;99.90
75091;DHT22;63674;48.048;8.306;2024-01-06T15:50:07;2.90;99.90
75091;DHT22;63674;48.048;8.306;2024-01-06T15:52:36;3.00;99.90
75091;DHT22;63674;48.048;8.306;2024-01-06T15:55:05;2.90;99.90
75091;DHT22;63674;48.048;8.306;2024-01-06T15:57:35;2.90;99.90
75091;DHT22;63674;48.048;8.306;2024-01-06T16:00:07;2.90;99.90
75091;DHT22;63674;48.048;8.306;2024-01-06T16:02:37;2.90;99.90
75091;DHT22;63674;48.048;8.306;2024-01-06T16:05:06;2.90;99.90
75091;DHT22;63674;48.048;8.306;2024-01-06T16:07:36;2.90;99.90